Time;durP1;ratioP1;P1;durP2;ratioP2;P2;SDS_P1;SDS_P2;PMS_P1;PMS_P2;Temp;Humidity;BMP_temperature;BMP_pressure;BME280_temperature;BME280_humidity;BME280_pressure;Samples;Min_cycle;Max_cycle;Signal;HPM_P1;HPM_P2
2024/03/24 00:01:09;;;;;;;3.37;1.40;;;3.00;99.90;;;;;;4982588;28;20097;-85
2024/03/24 00:03:36;;;;;;;3.63;1.30;;;3.00;99.90;;;;;;4982500;28;21415;-86
2024/03/24 00:06:01;;;;;;;3.17;1.33;;;3.00;99.90;;;;;;4982038;28;20096;-85
2024/03/24 00:08:27;;;;;;;2.90;1.40;;;3.00;99.90;;;;;;4983404;28;20094;-85
2024/03/24 00:10:53;;;;;;;3.27;1.30;;;3.00;99.90;;;;;;4985599;28;20156;-85
2024/03/24 00:13:19;;;;;;;2.27;1.17;;;3.00;99.90;;;;;;4985462;28;20084;-86
2024/03/24 00:15:45;;;;;;;4.03;1.20;;;3.10;99.90;;;;;;4980500;28;20145;-85
2024/03/24 00:18:10;;;;;;;3.03;1.27;;;3.10;99.90;;;;;;4984145;28;21335;-85
2024/03/24 00:20:36;;;;;;;2.73;1.27;;;3.10;99.90;;;;;;4986659;28;20483;-85
2024/03/24 00:23:02;;;;;;;2.07;1.10;;;3.10;99.90;;;;;;4986416;28;20031;-85
2024/03/24 00:25:28;;;;;;;2.53;1.30;;;3.20;99.90;;;;;;4985798;28;20034;-86
2024/03/24 00:27:53;;;;;;;3.00;1.33;;;3.20;99.90;;;;;;4985119;28;20042;-86
2024/03/24 00:30:19;;;;;;;4.17;2.03;;;3.20;99.90;;;;;;4985084;28;20046;-85
2024/03/24 00:32:44;;;;;;;6.00;1.40;;;3.20;99.90;;;;;;4984451;28;20045;-86
2024/03/24 00:35:10;;;;;;;2.43;1.27;;;3.20;99.90;;;;;;4983300;28;20030;-85
2024/03/24 00:37:36;;;;;;;3.13;1.17;;;3.20;99.90;;;;;;4982329;28;20571;-87
2024/03/24 00:40:03;;;;;;;3.37;1.40;;;3.20;99.90;;;;;;4984834;28;20037;-86
2024/03/24 00:42:29;;;;;;;2.23;1.47;;;3.20;99.90;;;;;;4983910;28;20110;-85
2024/03/24 00:44:55;;;;;;;4.70;1.40;;;3.10;99.90;;;;;;4984509;28;20030;-86
2024/03/24 00:47:20;;;;;;;2.37;1.70;;;3.10;99.90;;;;;;4983128;28;20026;-86
2024/03/24 00:49:46;;;;;;;3.07;1.40;;;3.10;99.90;;;;;;4983004;28;20479;-86
2024/03/24 00:52:11;;;;;;;7.30;1.57;;;3.10;99.90;;;;;;4982690;28;20443;-85
2024/03/24 00:54:37;;;;;;;2.90;1.40;;;3.00;99.90;;;;;;4984502;28;20031;-85
2024/03/24 00:57:03;;;;;;;3.80;1.27;;;3.00;99.90;;;;;;4983748;28;20023;-87
2024/03/24 00:59:28;;;;;;;3.83;1.40;;;3.00;99.90;;;;;;4998405;28;20157;-86
2024/03/24 01:01:54;;;;;;;2.50;1.40;;;3.00;99.90;;;;;;4984795;28;20525;-86
2024/03/24 01:04:19;;;;;;;3.57;1.43;;;2.90;99.90;;;;;;4981958;28;20030;-86
2024/03/24 01:06:45;;;;;;;4.70;1.63;;;2.90;99.90;;;;;;4983865;28;20022;-85
2024/03/24 01:09:13;;;;;;;4.13;1.60;;;2.90;99.90;;;;;;4984959;28;20049;-86
2024/03/24 01:11:40;;;;;;;2.83;1.20;;;2.90;99.90;;;;;;4984414;28;20031;-85
2024/03/24 01:14:06;;;;;;;7.93;1.67;;;2.90;99.90;;;;;;4982110;28;20129;-85
2024/03/24 01:16:31;;;;;;;5.53;1.57;;;2.90;99.90;;;;;;4982996;28;20064;-86
2024/03/24 01:18:57;;;;;;;3.60;1.30;;;2.90;99.90;;;;;;4984278;28;20030;-85
2024/03/24 01:21:23;;;;;;;2.30;1.30;;;2.90;99.90;;;;;;4984748;28;20117;-86
2024/03/24 01:23:49;;;;;;;1.43;0.93;;;2.90;99.90;;;;;;4984814;28;20034;-86
2024/03/24 01:26:14;;;;;;;2.60;1.10;;;2.90;99.90;;;;;;4983623;28;20042;-85
2024/03/24 01:28:40;;;;;;;2.40;1.40;;;2.90;99.90;;;;;;4984112;28;20097;-86
2024/03/24 01:31:05;;;;;;;2.70;1.40;;;2.90;99.90;;;;;;4986388;28;20092;-85
2024/03/24 01:33:31;;;;;;;4.83;2.00;;;2.90;99.90;;;;;;4985699;28;20038;-85
2024/03/24 01:35:56;;;;;;;5.80;1.43;;;2.90;99.90;;;;;;5001520;28;20101;-86
2024/03/24 01:38:22;;;;;;;3.27;1.30;;;2.90;99.90;;;;;;4983528;28;20034;-85
2024/03/24 01:40:49;;;;;;;3.43;1.20;;;2.90;99.90;;;;;;4983535;28;20026;-85
2024/03/24 01:43:14;;;;;;;2.97;1.03;;;2.90;99.90;;;;;;4983181;28;20086;-86
2024/03/24 01:45:41;;;;;;;1.70;1.00;;;2.90;99.90;;;;;;4981129;28;20022;-85
2024/03/24 01:48:07;;;;;;;2.93;1.17;;;3.00;99.90;;;;;;4983217;28;20034;-86
2024/03/24 01:50:33;;;;;;;2.87;1.07;;;3.10;99.90;;;;;;4983453;28;20097;-87
2024/03/24 01:52:59;;;;;;;2.10;1.10;;;3.10;99.90;;;;;;4982849;28;20121;-86
2024/03/24 01:55:25;;;;;;;2.63;1.43;;;3.20;99.90;;;;;;4982110;28;20469;-86
2024/03/24 01:57:51;;;;;;;2.03;0.90;;;3.20;99.90;;;;;;4981054;28;20581;-87
2024/03/24 02:00:16;;;;;;;2.37;1.00;;;3.20;99.90;;;;;;4982111;28;20026;-88
2024/03/24 02:02:42;;;;;;;2.87;1.10;;;3.10;99.90;;;;;;4981800;28;20050;-87
2024/03/24 02:05:08;;;;;;;1.70;1.10;;;3.10;99.90;;;;;;4981688;28;20522;-87
2024/03/24 02:07:33;;;;;;;2.67;1.10;;;3.10;99.90;;;;;;4982346;28;20027;-87
2024/03/24 02:09:59;;;;;;;3.73;1.27;;;3.10;99.90;;;;;;4982463;28;20127;-87
2024/03/24 02:12:25;;;;;;;3.73;1.10;;;3.10;99.90;;;;;;4982066;28;20052;-87
2024/03/24 02:14:51;;;;;;;2.40;1.10;;;3.00;99.90;;;;;;4982024;28;20026;-86
2024/03/24 02:17:16;;;;;;;1.97;1.10;;;2.90;99.90;;;;;;4981903;28;20041;-86
2024/03/24 02:19:42;;;;;;;1.53;1.03;;;2.90;99.90;;;;;;4982468;28;20034;-86
2024/03/24 02:22:08;;;;;;;1.80;1.10;;;2.90;99.90;;;;;;4982903;28;20041;-86
2024/03/24 02:24:33;;;;;;;1.93;1.17;;;2.80;99.90;;;;;;4982240;28;20038;-88
2024/03/24 02:26:59;;;;;;;3.70;1.10;;;2.70;99.90;;;;;;4982264;28;20072;-86
2024/03/24 02:29:24;;;;;;;2.13;1.10;;;2.70;99.90;;;;;;4982210;28;20034;-87
2024/03/24 02:31:50;;;;;;;1.83;1.00;;;2.60;99.90;;;;;;4982203;28;20039;-87
2024/03/24 02:34:15;;;;;;;2.03;1.13;;;2.60;99.90;;;;;;4982576;28;20022;-87
2024/03/24 02:36:41;;;;;;;3.40;1.10;;;2.60;99.90;;;;;;4981446;28;20030;-86
2024/03/24 02:39:06;;;;;;;2.40;1.83;;;2.50;99.90;;;;;;4981252;28;20129;-87
2024/03/24 02:41:33;;;;;;;1.83;1.03;;;2.50;99.90;;;;;;4981959;28;20026;-86
2024/03/24 02:43:58;;;;;;;1.60;0.90;;;2.50;99.90;;;;;;4981653;28;21158;-87
2024/03/24 02:46:24;;;;;;;3.53;1.10;;;2.50;99.90;;;;;;4981528;28;20030;-87
2024/03/24 02:48:49;;;;;;;1.27;1.07;;;2.50;99.90;;;;;;4980454;28;20030;-86
2024/03/24 02:51:15;;;;;;;1.40;0.90;;;2.50;99.90;;;;;;4981659;28;20046;-87
2024/03/24 02:53:40;;;;;;;1.30;0.90;;;2.50;99.90;;;;;;4979234;28;20037;-87
2024/03/24 02:56:06;;;;;;;1.47;1.00;;;2.50;99.90;;;;;;4981467;28;20467;-87
2024/03/24 02:58:31;;;;;;;1.00;0.87;;;2.50;99.90;;;;;;4981577;28;20030;-86
2024/03/24 03:00:57;;;;;;;3.37;1.07;;;2.50;99.90;;;;;;4981763;28;20027;-86
2024/03/24 03:03:22;;;;;;;2.27;1.13;;;2.50;99.90;;;;;;4980826;28;20065;-86
2024/03/24 03:05:48;;;;;;;0.80;0.80;;;2.50;99.90;;;;;;4980263;28;20041;-86
2024/03/24 03:08:14;;;;;;;1.20;1.10;;;2.40;99.90;;;;;;4980740;28;20038;-87
2024/03/24 03:10:39;;;;;;;3.50;1.27;;;2.40;99.90;;;;;;4981210;28;20030;-87
2024/03/24 03:13:05;;;;;;;1.40;1.00;;;2.40;99.90;;;;;;4981386;28;20093;-87
2024/03/24 03:15:31;;;;;;;2.07;1.10;;;2.40;99.90;;;;;;4980511;28;21785;-86
2024/03/24 03:17:56;;;;;;;2.80;1.00;;;2.40;99.90;;;;;;4981869;28;20090;-87
2024/03/24 03:20:22;;;;;;;1.30;1.00;;;2.40;99.90;;;;;;4995873;28;21405;-86
2024/03/24 03:22:48;;;;;;;1.77;1.10;;;2.40;99.90;;;;;;4980414;28;20647;-87
2024/03/24 03:25:13;;;;;;;1.23;0.90;;;2.40;99.90;;;;;;4980543;28;20054;-87
2024/03/24 03:27:39;;;;;;;3.17;1.27;;;2.40;99.90;;;;;;4980480;28;20050;-88
2024/03/24 03:30:06;;;;;;;2.40;1.00;;;2.30;99.90;;;;;;4981744;28;20097;-86
2024/03/24 03:32:31;;;;;;;1.97;1.30;;;2.30;99.90;;;;;;4980338;28;20331;-86
2024/03/24 03:34:57;;;;;;;3.37;1.23;;;2.30;99.90;;;;;;4980288;28;20026;-86
2024/03/24 03:37:22;;;;;;;2.50;1.00;;;2.30;99.90;;;;;;4981000;28;20549;-86
2024/03/24 03:39:48;;;;;;;3.23;1.00;;;2.30;99.90;;;;;;4981019;28;20483;-86
2024/03/24 03:42:15;;;;;;;2.00;1.10;;;2.30;99.90;;;;;;4981687;28;20026;-86
2024/03/24 03:44:41;;;;;;;6.00;1.30;;;2.30;99.90;;;;;;4981543;28;20064;-86
2024/03/24 03:47:07;;;;;;;1.53;1.20;;;2.30;99.90;;;;;;4996277;28;20026;-86
2024/03/24 03:49:33;;;;;;;5.33;1.40;;;2.30;99.90;;;;;;4981703;28;20038;-86
2024/03/24 03:51:58;;;;;;;3.80;1.13;;;2.40;99.90;;;;;;4999340;28;20026;-86
2024/03/24 03:54:24;;;;;;;1.47;1.00;;;2.40;99.90;;;;;;4985833;28;20743;-87
2024/03/24 03:56:50;;;;;;;5.17;1.30;;;2.40;99.90;;;;;;4983137;28;20034;-87
2024/03/24 03:59:16;;;;;;;1.83;0.97;;;2.50;99.90;;;;;;4983679;28;20026;-86
2024/03/24 04:01:41;;;;;;;1.13;1.00;;;2.60;99.90;;;;;;4985053;28;20038;-86
2024/03/24 04:04:08;;;;;;;2.30;1.13;;;2.60;99.90;;;;;;4984658;28;20026;-86
2024/03/24 04:06:34;;;;;;;3.73;1.00;;;2.70;99.90;;;;;;4984831;28;20501;-87
2024/03/24 04:09:00;;;;;;;4.43;1.50;;;2.70;99.90;;;;;;4984877;28;20058;-88
2024/03/24 04:11:26;;;;;;;1.40;1.00;;;2.80;99.90;;;;;;4984797;28;20057;-87
2024/03/24 04:13:51;;;;;;;3.63;1.00;;;2.80;99.90;;;;;;4984441;28;20030;-87
2024/03/24 04:16:17;;;;;;;2.50;1.00;;;2.80;99.90;;;;;;4983217;28;20034;-86
2024/03/24 04:18:49;;;;;;;1.50;0.90;;;2.80;99.90;;;;;;4985037;28;20038;-87
2024/03/24 04:21:16;;;;;;;2.10;0.97;;;2.90;99.90;;;;;;4985373;28;20019;-86
2024/03/24 04:23:42;;;;;;;1.67;1.13;;;2.90;99.90;;;;;;4985348;28;20045;-85
2024/03/24 04:26:08;;;;;;;1.37;0.93;;;2.90;99.90;;;;;;4984129;28;20026;-86
2024/03/24 04:28:33;;;;;;;1.90;1.10;;;2.90;99.90;;;;;;4984851;28;20037;-86
2024/03/24 04:30:59;;;;;;;3.13;1.20;;;3.00;99.90;;;;;;4983982;28;20026;-87
2024/03/24 04:33:25;;;;;;;1.70;0.90;;;3.00;99.90;;;;;;4983990;28;20038;-86
2024/03/24 04:35:51;;;;;;;1.23;1.00;;;2.90;99.90;;;;;;4983607;28;20041;-86
2024/03/24 04:38:17;;;;;;;1.87;1.00;;;2.90;99.90;;;;;;4985278;28;20035;-85
2024/03/24 04:40:44;;;;;;;4.50;1.13;;;2.90;99.90;;;;;;4985497;28;20028;-86
2024/03/24 04:43:12;;;;;;;2.77;1.03;;;2.90;99.90;;;;;;4985216;28;20089;-87
2024/03/24 04:45:38;;;;;;;1.73;1.10;;;2.90;99.90;;;;;;4984019;28;20610;-86
2024/03/24 04:48:04;;;;;;;0.90;0.90;;;2.90;99.90;;;;;;4983665;28;20034;-86
2024/03/24 04:50:30;;;;;;;1.93;0.90;;;3.00;99.90;;;;;;4984265;28;20045;-86
2024/03/24 04:52:55;;;;;;;1.93;1.10;;;3.00;99.90;;;;;;4985556;28;20423;-86
2024/03/24 04:55:21;;;;;;;3.37;1.00;;;3.00;99.90;;;;;;4984442;28;20734;-86
2024/03/24 04:57:46;;;;;;;2.37;1.00;;;3.00;99.90;;;;;;4984266;28;20878;-86
2024/03/24 05:00:13;;;;;;;1.47;0.97;;;3.00;99.90;;;;;;4984462;28;20022;-86
2024/03/24 05:02:39;;;;;;;2.47;1.10;;;2.90;99.90;;;;;;4983114;28;20041;-86
2024/03/24 05:05:05;;;;;;;2.67;1.20;;;2.90;99.90;;;;;;4985455;28;20030;-85
2024/03/24 05:07:30;;;;;;;1.90;1.00;;;2.90;99.90;;;;;;4987096;28;20049;-86
2024/03/24 05:09:56;;;;;;;2.20;1.37;;;2.80;99.90;;;;;;4987625;28;20493;-86
2024/03/24 05:12:21;;;;;;;1.43;1.00;;;2.90;99.90;;;;;;4987928;28;20455;-86
2024/03/24 05:14:49;;;;;;;1.07;0.90;;;2.90;99.90;;;;;;4983478;28;20525;-87
2024/03/24 05:17:16;;;;;;;1.40;1.10;;;2.90;99.90;;;;;;4983909;28;20034;-86
2024/03/24 05:19:42;;;;;;;1.97;1.00;;;2.90;99.90;;;;;;4984690;28;20104;-86
2024/03/24 05:22:07;;;;;;;2.13;1.13;;;2.90;99.90;;;;;;4982785;28;20030;-86
2024/03/24 05:24:35;;;;;;;2.30;1.10;;;2.90;99.90;;;;;;4984339;28;20034;-86
2024/03/24 05:27:01;;;;;;;2.47;1.10;;;3.00;99.90;;;;;;4983590;28;20026;-86
2024/03/24 05:29:27;;;;;;;1.63;1.00;;;3.00;99.90;;;;;;4983542;28;20101;-86
2024/03/24 05:31:57;;;;;;;1.33;0.90;;;2.90;99.90;;;;;;4983594;28;20494;-86
2024/03/24 05:34:23;;;;;;;1.10;0.80;;;2.90;99.90;;;;;;4984658;28;20076;-85
2024/03/24 05:36:49;;;;;;;2.07;1.10;;;2.90;99.90;;;;;;4981449;28;20050;-85
2024/03/24 05:39:16;;;;;;;2.03;1.10;;;2.80;99.90;;;;;;4982976;28;20030;-85
2024/03/24 05:41:42;;;;;;;1.20;1.00;;;2.80;99.90;;;;;;4984227;28;20047;-85
2024/03/24 05:44:07;;;;;;;1.37;1.10;;;2.70;99.90;;;;;;4983891;28;20025;-85
2024/03/24 05:46:33;;;;;;;2.13;1.13;;;2.70;99.90;;;;;;4983775;28;20026;-86
2024/03/24 05:48:58;;;;;;;1.57;1.10;;;2.70;99.90;;;;;;4983766;28;20057;-85
2024/03/24 05:51:24;;;;;;;1.20;1.00;;;2.60;99.90;;;;;;4983722;28;20174;-86
2024/03/24 05:53:49;;;;;;;1.60;1.00;;;2.60;99.90;;;;;;4983153;28;20093;-86
2024/03/24 05:56:15;;;;;;;1.30;1.10;;;2.60;99.90;;;;;;4983350;28;20042;-86
2024/03/24 05:58:41;;;;;;;2.50;1.40;;;2.50;99.90;;;;;;4985191;28;20041;-85
2024/03/24 06:01:06;;;;;;;1.97;1.20;;;2.50;99.90;;;;;;4984538;28;20878;-85
2024/03/24 06:03:32;;;;;;;1.20;1.10;;;2.50;99.90;;;;;;4983781;28;20594;-85
2024/03/24 06:05:57;;;;;;;3.07;1.80;;;2.60;99.90;;;;;;4982836;28;20034;-85
2024/03/24 06:08:23;;;;;;;3.90;1.30;;;2.60;99.90;;;;;;4983054;28;20038;-86
2024/03/24 06:10:49;;;;;;;1.63;1.10;;;2.70;99.90;;;;;;4982521;28;20034;-86
2024/03/24 06:13:15;;;;;;;1.77;0.97;;;2.70;99.90;;;;;;4981512;28;20049;-87
2024/03/24 06:15:40;;;;;;;1.80;1.20;;;2.80;99.90;;;;;;4979811;28;20033;-87
2024/03/24 06:18:06;;;;;;;2.13;1.10;;;2.80;99.90;;;;;;4981860;28;20026;-87
2024/03/24 06:20:38;;;;;;;1.33;1.10;;;2.80;99.90;;;;;;4982566;28;20030;-85
2024/03/24 06:23:04;;;;;;;1.40;1.00;;;2.80;99.90;;;;;;4982585;28;20026;-86
2024/03/24 06:25:31;;;;;;;1.67;1.00;;;2.80;99.90;;;;;;4981351;28;20045;-86
2024/03/24 06:27:57;;;;;;;2.13;1.13;;;2.90;99.90;;;;;;4981707;28;20356;-86
2024/03/24 06:30:23;;;;;;;3.00;1.50;;;2.90;99.90;;;;;;4981974;28;20057;-87
2024/03/24 06:32:49;;;;;;;1.60;1.00;;;2.90;99.90;;;;;;4981563;28;20033;-85
2024/03/24 06:35:15;;;;;;;1.10;0.90;;;3.00;99.90;;;;;;4982469;28;20026;-87
2024/03/24 06:37:40;;;;;;;5.20;1.23;;;3.10;99.90;;;;;;4981796;28;20104;-86
2024/03/24 06:40:08;;;;;;;1.37;1.03;;;3.10;99.90;;;;;;4996442;28;20395;-85
2024/03/24 06:42:44;;;;;;;1.50;1.07;;;3.20;99.90;;;;;;4981253;28;20112;-86
2024/03/24 06:45:11;;;;;;;2.23;0.80;;;3.30;99.90;;;;;;4981829;28;20028;-87
2024/03/24 06:47:37;;;;;;;1.67;1.00;;;3.40;99.90;;;;;;4981589;28;20053;-86
2024/03/24 06:50:03;;;;;;;1.33;1.00;;;3.60;99.90;;;;;;4981482;28;20029;-86
2024/03/24 06:52:29;;;;;;;1.73;1.00;;;3.60;99.90;;;;;;4979450;28;20026;-85
2024/03/24 06:54:54;;;;;;;2.00;1.00;;;3.60;99.90;;;;;;4979444;28;20022;-86
2024/03/24 06:57:20;;;;;;;4.10;1.20;;;3.70;99.90;;;;;;4980378;28;20121;-87
2024/03/24 06:59:47;;;;;;;1.10;0.90;;;3.70;99.90;;;;;;4980845;28;20394;-85
2024/03/24 07:02:13;;;;;;;2.17;1.17;;;3.80;99.90;;;;;;4981032;28;20073;-86
2024/03/24 07:04:38;;;;;;;2.63;1.10;;;3.90;99.90;;;;;;4980836;28;20050;-86
2024/03/24 07:07:04;;;;;;;1.53;1.20;;;4.10;99.90;;;;;;4980531;28;20034;-87
2024/03/24 07:09:29;;;;;;;1.60;1.00;;;4.20;99.90;;;;;;4982171;28;20101;-87
2024/03/24 07:11:55;;;;;;;1.90;1.10;;;4.40;99.90;;;;;;4981178;28;20135;-86
2024/03/24 07:14:20;;;;;;;1.90;1.10;;;4.50;99.90;;;;;;4981705;28;20156;-86
2024/03/24 07:16:46;;;;;;;1.70;1.00;;;4.50;99.90;;;;;;4981791;28;20443;-87
2024/03/24 07:19:11;;;;;;;1.67;1.20;;;4.60;99.90;;;;;;4982642;28;20026;-87
2024/03/24 07:21:37;;;;;;;1.60;1.10;;;4.70;99.90;;;;;;4980007;28;20446;-87
2024/03/24 07:24:03;;;;;;;1.60;1.17;;;4.70;99.90;;;;;;4979322;28;21090;-88
2024/03/24 07:26:28;;;;;;;1.57;1.00;;;4.70;99.90;;;;;;4978778;28;20577;-87
2024/03/24 07:28:54;;;;;;;2.10;1.13;;;4.70;99.90;;;;;;4976514;28;20034;-88
2024/03/24 07:31:20;;;;;;;2.70;1.13;;;4.70;99.90;;;;;;4979619;28;20061;-87
2024/03/24 07:33:45;;;;;;;1.73;1.20;;;4.70;99.90;;;;;;4977424;28;20034;-87
2024/03/24 07:36:11;;;;;;;1.70;1.10;;;4.70;99.90;;;;;;4977806;28;20038;-87
2024/03/24 07:38:38;;;;;;;2.67;1.40;;;4.70;99.90;;;;;;4978099;28;20050;-87
2024/03/24 07:41:04;;;;;;;1.83;1.00;;;4.80;99.90;;;;;;4979514;28;20085;-86
2024/03/24 07:43:29;;;;;;;1.97;1.00;;;4.80;99.90;;;;;;4978834;28;20022;-87
2024/03/24 07:45:55;;;;;;;3.30;0.90;;;4.90;99.90;;;;;;4992169;28;20113;-87
2024/03/24 07:48:20;;;;;;;1.93;1.17;;;5.00;99.90;;;;;;4978024;28;20034;-76
2024/03/24 07:50:46;;;;;;;2.90;1.00;;;5.20;99.90;;;;;;4979772;28;20033;-76
2024/03/24 07:53:11;;;;;;;3.23;1.27;;;5.20;99.90;;;;;;4976803;28;20038;-75
2024/03/24 07:55:37;;;;;;;3.67;1.10;;;5.10;99.90;;;;;;4978855;28;20030;-76
2024/03/24 07:58:03;;;;;;;2.30;1.30;;;5.20;99.90;;;;;;4979468;28;20041;-87
2024/03/24 08:00:29;;;;;;;2.07;1.20;;;5.20;99.90;;;;;;4978876;28;20105;-87
2024/03/24 08:02:55;;;;;;;1.60;0.90;;;5.20;99.90;;;;;;4979088;28;20135;-86
2024/03/24 08:05:20;;;;;;;1.13;1.03;;;5.20;99.90;;;;;;4978874;28;20467;-86
2024/03/24 08:07:46;;;;;;;1.37;0.80;;;5.10;99.90;;;;;;4978580;28;20035;-87
2024/03/24 08:10:14;;;;;;;1.17;0.80;;;5.10;99.90;;;;;;4979126;28;20034;-88
2024/03/24 08:12:40;;;;;;;3.07;1.10;;;4.90;99.90;;;;;;4976732;28;20034;-86
2024/03/24 08:15:07;;;;;;;1.80;1.00;;;4.70;99.90;;;;;;4992596;28;20045;-86
2024/03/24 08:17:33;;;;;;;3.17;1.10;;;4.60;99.90;;;;;;4978349;28;20037;-87
2024/03/24 08:19:58;;;;;;;2.60;1.10;;;4.50;99.90;;;;;;4978458;28;20081;-86
2024/03/24 08:22:24;;;;;;;2.03;1.00;;;4.40;99.90;;;;;;4978583;28;20709;-86
2024/03/24 08:24:49;;;;;;;1.60;1.00;;;4.30;99.90;;;;;;4977981;28;20042;-85
2024/03/24 08:27:15;;;;;;;2.47;1.00;;;4.30;99.90;;;;;;4978171;28;20089;-87
2024/03/24 08:29:41;;;;;;;2.20;1.00;;;4.30;99.90;;;;;;4978657;28;20026;-86
2024/03/24 08:32:07;;;;;;;1.53;0.90;;;4.20;99.90;;;;;;4978749;28;20069;-86
2024/03/24 08:34:32;;;;;;;3.33;1.00;;;4.30;99.90;;;;;;4977429;28;20030;-87
2024/03/24 08:36:58;;;;;;;2.00;1.00;;;4.30;99.90;;;;;;4979635;28;20050;-86
2024/03/24 08:39:23;;;;;;;1.43;1.00;;;4.30;99.90;;;;;;4979922;28;20108;-86
2024/03/24 08:41:49;;;;;;;0.83;0.80;;;4.30;99.90;;;;;;4983991;28;20033;-80
2024/03/24 08:44:14;;;;;;;1.50;0.80;;;4.20;99.90;;;;;;4983314;28;20034;-84
2024/03/24 08:46:40;;;;;;;1.17;0.90;;;4.10;99.90;;;;;;4988132;28;20038;-85
2024/03/24 08:49:06;;;;;;;2.23;1.27;;;4.10;99.90;;;;;;4991231;28;20121;-84
2024/03/24 08:51:32;;;;;;;1.63;1.20;;;4.10;99.90;;;;;;4984721;28;20045;-85
2024/03/24 08:53:57;;;;;;;1.57;1.10;;;4.10;99.90;;;;;;4983461;28;20737;-86
2024/03/24 08:56:23;;;;;;;1.50;1.23;;;4.10;99.90;;;;;;4984941;28;20037;-84
2024/03/24 08:58:48;;;;;;;2.07;1.30;;;4.00;99.90;;;;;;4985486;28;20057;-85
2024/03/24 09:01:14;;;;;;;2.20;1.27;;;3.90;99.90;;;;;;4982425;28;20042;-86
2024/03/24 09:03:39;;;;;;;4.40;1.50;;;3.90;99.90;;;;;;4981584;28;20097;-86
2024/03/24 09:06:06;;;;;;;2.10;1.23;;;3.90;99.90;;;;;;4979774;28;20049;-86
2024/03/24 09:08:33;;;;;;;1.50;1.17;;;3.90;99.90;;;;;;4979035;28;20034;-87
2024/03/24 09:10:58;;;;;;;1.30;1.20;;;3.90;99.90;;;;;;4980344;28;20180;-86
2024/03/24 09:13:24;;;;;;;2.30;1.40;;;3.80;99.90;;;;;;4979441;28;20096;-86
2024/03/24 09:15:50;;;;;;;2.13;1.40;;;3.80;99.90;;;;;;4979115;28;20173;-80
2024/03/24 09:18:16;;;;;;;2.67;1.80;;;4.00;99.90;;;;;;4980982;28;20181;-86
2024/03/24 09:20:42;;;;;;;2.47;1.40;;;4.20;99.90;;;;;;4978781;28;20390;-86
2024/03/24 09:23:07;;;;;;;2.27;1.40;;;4.50;99.90;;;;;;4979332;28;20529;-87
2024/03/24 09:25:33;;;;;;;2.53;1.40;;;4.70;99.90;;;;;;4980089;28;20077;-87
2024/03/24 09:27:59;;;;;;;1.03;0.90;;;4.80;99.90;;;;;;4980574;28;20022;-85
2024/03/24 09:30:25;;;;;;;1.63;1.00;;;5.10;99.90;;;;;;4982729;28;20038;-86
2024/03/24 09:32:51;;;;;;;1.20;1.00;;;5.30;99.90;;;;;;4982651;28;20030;-87
2024/03/24 09:35:17;;;;;;;2.67;1.10;;;5.50;99.90;;;;;;4995144;28;20042;-87
2024/03/24 09:37:43;;;;;;;1.07;0.90;;;5.60;99.90;;;;;;4981929;28;20034;-87
2024/03/24 09:40:10;;;;;;;1.87;1.10;;;5.70;99.90;;;;;;4982488;28;20030;-87
2024/03/24 09:42:35;;;;;;;1.30;0.93;;;5.80;99.90;;;;;;4981860;28;20033;-87
2024/03/24 09:45:05;;;;;;;2.70;1.07;;;5.80;99.90;;;;;;4980197;28;20030;-87
2024/03/24 09:47:33;;;;;;;2.60;1.10;;;5.90;99.90;;;;;;4981575;28;20051;-87
2024/03/24 09:50:00;;;;;;;1.37;0.90;;;5.90;99.90;;;;;;4981328;28;20474;-86
2024/03/24 09:52:30;;;;;;;1.10;0.90;;;6.00;99.90;;;;;;4982083;28;20042;-85
2024/03/24 09:54:56;;;;;;;0.90;0.90;;;6.20;99.90;;;;;;4984446;28;20068;-87
2024/03/24 09:57:27;;;;;;;1.17;0.90;;;6.30;99.90;;;;;;4982668;28;20976;-86
2024/03/24 09:59:54;;;;;;;1.93;0.90;;;6.10;99.90;;;;;;4984558;28;20042;-86
2024/03/24 10:02:21;;;;;;;1.47;0.87;;;5.90;99.90;;;;;;4985178;28;20042;-86
2024/03/24 10:04:47;;;;;;;1.23;1.00;;;6.10;99.90;;;;;;4985448;28;20027;-87
2024/03/24 10:07:12;;;;;;;1.00;0.90;;;6.20;99.90;;;;;;4983381;28;20034;-88
2024/03/24 10:09:38;;;;;;;1.43;0.90;;;6.30;99.90;;;;;;4983345;28;20054;-85
2024/03/24 10:12:13;;;;;;;1.37;0.83;;;6.40;99.90;;;;;;4982562;28;20034;-87
2024/03/24 10:14:39;;;;;;;1.30;0.80;;;6.60;99.90;;;;;;4981600;28;20498;-88
2024/03/24 10:17:18;;;;;;;1.10;0.80;;;6.80;99.90;;;;;;4980875;28;20037;-86
2024/03/24 10:19:48;;;;;;;1.03;0.67;;;6.70;99.90;;;;;;4982468;28;20030;-87
2024/03/24 10:22:14;;;;;;;1.93;0.90;;;6.60;99.90;;;;;;4982154;28;20026;-87
2024/03/24 10:24:45;;;;;;;1.07;0.87;;;6.50;99.90;;;;;;4983690;28;20072;-86
2024/03/24 10:27:12;;;;;;;1.37;1.00;;;6.40;99.90;;;;;;4983472;28;20128;-87
2024/03/24 10:29:39;;;;;;;1.33;0.90;;;6.30;99.90;;;;;;4982300;28;20498;-86
2024/03/24 10:32:04;;;;;;;2.27;1.10;;;6.10;99.90;;;;;;4981421;28;20485;-86
2024/03/24 10:34:35;;;;;;;2.73;1.00;;;5.80;99.90;;;;;;4981765;28;20041;-87
2024/03/24 10:37:01;;;;;;;2.83;1.40;;;5.70;99.90;;;;;;4982013;28;20444;-86
2024/03/24 10:39:27;;;;;;;2.20;0.90;;;5.70;99.90;;;;;;4978891;28;20046;-87
2024/03/24 10:41:54;;;;;;;1.93;1.20;;;5.70;99.90;;;;;;4979885;28;20042;-86
2024/03/24 10:44:21;;;;;;;3.43;1.50;;;5.70;99.90;;;;;;4981560;28;20541;-86
2024/03/24 10:46:49;;;;;;;3.47;1.37;;;5.70;99.90;;;;;;4981163;28;20034;-86
2024/03/24 10:49:19;;;;;;;1.40;1.03;;;5.80;99.90;;;;;;4977201;28;20034;-86
2024/03/24 10:51:48;;;;;;;4.63;1.73;;;5.90;99.90;;;;;;4980278;28;20026;-86
2024/03/24 10:54:16;;;;;;;3.17;1.50;;;6.20;99.90;;;;;;4989441;28;20090;-87
2024/03/24 10:56:42;;;;;;;1.90;1.30;;;6.40;99.90;;;;;;4994269;28;20845;-87
2024/03/24 10:59:08;;;;;;;4.67;1.20;;;6.60;99.90;;;;;;4995816;28;20137;-88
2024/03/24 11:01:35;;;;;;;3.10;1.10;;;6.80;99.90;;;;;;4993898;28;20061;-86
2024/03/24 11:04:03;;;;;;;2.30;1.13;;;6.90;99.90;;;;;;4994769;28;20111;-85
2024/03/24 11:06:31;;;;;;;1.27;1.00;;;7.00;99.90;;;;;;4993284;28;20026;-87
2024/03/24 11:08:56;;;;;;;1.47;1.00;;;6.90;99.90;;;;;;4993710;28;20045;-86
2024/03/24 11:11:22;;;;;;;1.83;1.00;;;6.90;99.90;;;;;;4994389;28;20038;-86
2024/03/24 11:13:50;;;;;;;2.30;1.10;;;6.80;99.90;;;;;;4995007;28;20059;-87
2024/03/24 11:16:19;;;;;;;1.97;1.00;;;6.80;99.90;;;;;;4993252;28;20445;-88
2024/03/24 11:18:45;;;;;;;3.30;1.00;;;6.70;99.90;;;;;;4993953;28;20065;-87
2024/03/24 11:21:34;;;;;;;2.03;1.00;;;6.70;99.90;;;;;;4994137;28;20049;-86
2024/03/24 11:24:00;;;;;;;5.63;1.20;;;6.50;99.90;;;;;;4995214;28;20097;-87
2024/03/24 11:26:31;;;;;;;2.40;1.03;;;6.40;99.90;;;;;;4993774;28;20034;-87
2024/03/24 11:28:57;;;;;;;2.27;1.20;;;6.40;99.90;;;;;;5006656;28;20656;-87
2024/03/24 11:31:23;;;;;;;1.57;1.00;;;6.30;99.90;;;;;;4993429;28;20033;-87
2024/03/24 11:34:11;;;;;;;2.03;1.10;;;6.20;99.90;;;;;;4992177;28;20558;-85
2024/03/24 11:36:40;;;;;;;1.67;0.80;;;6.10;99.90;;;;;;4991928;28;20054;-89
2024/03/24 11:39:09;;;;;;;1.20;1.00;;;6.10;99.90;;;;;;4995198;28;20053;-87
2024/03/24 11:41:35;;;;;;;2.67;1.10;;;6.10;99.90;;;;;;4993601;28;20066;-89
2024/03/24 11:44:02;;;;;;;2.33;1.10;;;6.10;99.90;;;;;;4989793;28;20050;-86
2024/03/24 11:46:31;;;;;;;2.10;1.00;;;6.10;99.90;;;;;;4988958;28;20035;-86
2024/03/24 11:48:59;;;;;;;1.67;1.10;;;6.10;99.90;;;;;;4990358;28;20384;-87
2024/03/24 11:51:26;;;;;;;1.77;0.90;;;6.10;99.90;;;;;;5000951;28;20098;-87
2024/03/24 11:53:56;;;;;;;2.63;0.90;;;6.00;99.90;;;;;;5010563;28;20040;-87
2024/03/24 11:56:22;;;;;;;1.73;0.90;;;6.10;99.90;;;;;;5014733;28;20034;-88
2024/03/24 11:58:52;;;;;;;1.80;1.00;;;6.20;99.90;;;;;;4999270;28;20520;-87
2024/03/24 12:01:19;;;;;;;2.73;0.93;;;6.10;99.90;;;;;;4999595;28;20058;-87
2024/03/24 12:03:49;;;;;;;2.20;1.00;;;6.10;99.90;;;;;;4997632;28;20045;-87
2024/03/24 12:06:15;;;;;;;1.80;1.00;;;6.10;99.90;;;;;;4997117;28;20057;-87
2024/03/24 12:08:42;;;;;;;2.13;1.20;;;6.00;99.90;;;;;;4994286;28;20038;-87
2024/03/24 12:11:08;;;;;;;2.03;1.10;;;6.00;99.90;;;;;;4997107;28;20041;-87
2024/03/24 12:13:38;;;;;;;1.60;1.00;;;6.00;99.90;;;;;;5002174;28;20714;-87
2024/03/24 12:16:04;;;;;;;1.30;0.83;;;5.90;99.90;;;;;;5000598;28;20026;-86
2024/03/24 12:18:30;;;;;;;1.97;1.27;;;6.00;99.90;;;;;;4989425;28;20038;-82
2024/03/24 12:20:55;;;;;;;1.43;1.00;;;6.10;99.90;;;;;;4987169;28;20038;-84
2024/03/24 12:23:25;;;;;;;2.30;1.10;;;6.10;99.90;;;;;;5003553;28;20053;-89
2024/03/24 12:25:53;;;;;;;1.30;1.10;;;6.20;99.90;;;;;;5005708;28;20030;-87
2024/03/24 12:28:19;;;;;;;1.90;1.10;;;6.30;99.90;;;;;;4997873;28;20050;-87
2024/03/24 12:30:52;;;;;;;1.80;1.07;;;6.30;99.90;;;;;;4995729;28;20030;-86
2024/03/24 12:33:19;;;;;;;2.27;1.10;;;6.20;99.90;;;;;;4998114;28;20046;-88
2024/03/24 12:35:45;;;;;;;2.80;1.20;;;6.00;99.90;;;;;;4995582;28;20037;-86
2024/03/24 12:38:12;;;;;;;4.20;1.30;;;5.80;99.90;;;;;;4996271;28;21287;-85
2024/03/24 12:40:38;;;;;;;2.23;1.20;;;5.70;99.90;;;;;;4993964;28;20026;-86
2024/03/24 12:43:12;;;;;;;3.27;1.50;;;5.50;99.90;;;;;;4994533;28;20037;-87
2024/03/24 12:45:48;;;;;;;3.40;1.70;;;5.50;99.90;;;;;;4993242;28;20058;-86
2024/03/24 12:48:16;;;;;;;2.10;1.60;;;5.40;99.90;;;;;;4994604;28;20049;-86
2024/03/24 12:50:42;;;;;;;6.63;1.87;;;5.40;99.90;;;;;;4996566;28;20027;-86
2024/03/24 12:53:16;;;;;;;4.07;1.90;;;5.30;99.90;;;;;;4998186;28;20150;-87